CheckWX is a tool to help pilots better visualize weather data.  It is not intended as a substitute for an official pre-flight weather briefing.

08:57:55 UTC

CYXJ METAR
Fort St John Airport
Fort St.John, Canada
Current

58 mins ago

CYXJ 070800Z 35015KT 15SM FEW150 FEW240 M12/M16 A2976 RMK AC1CI1 AC TR SLP124
Observed
Dec-7 @ 08:00 UTC
Wind
  • 350° at 15 KTS
Visibility
15 SM
Flight Rules
VFR
Cloud Levels
  • Few at 15,000' AGL
  • Few at 24,000' AGL
Temperature
-12°C / 10°F
Dewpoint
-16°C / 3°F
Humidity
72%
Altimeter
29.76" Hg
Pressure
1007.82 hPa
Previous

2 hours ago

CYXJ 070700Z 36011KT 15SM FEW150 SCT240 M11/M14 A2975 RMK AC2CI2 SLP122
Observed
Dec-7 @ 07:00 UTC
Wind
  • 360° at 11 KTS
Visibility
15 SM
Flight Rules
VFR
Cloud Levels
  • Few at 15,000' AGL
  • Scattered at 24,000' AGL
Temperature
-11°C / 12°F
Dewpoint
-14°C / 7°F
Humidity
79%
Altimeter
29.75" Hg
Pressure
1007.42 hPa
Previous

3 hours ago

CYXJ 070600Z 34009KT 15SM FEW120 SCT210 M09/M13 A2973 RMK AC2CI2 SLP116
Observed
Dec-7 @ 06:00 UTC
Wind
  • 340° at 9 KTS
Visibility
15 SM
Flight Rules
VFR
Cloud Levels
  • Few at 12,000' AGL
  • Scattered at 21,000' AGL
Temperature
-9°C / 16°F
Dewpoint
-13°C / 9°F
Humidity
73%
Altimeter
29.73" Hg
Pressure
1006.82 hPa